Northwood, New Hampshire
Current Conditions -  °F | °C
As of 8:51 AM on Wednesday 22 Oct 2014 (Local Time) from KDAW Reporting Station
Light Rain Light Rain  
Wind Chill: 43°   Ceiling: 800
Heat Index: 48°   Visibility: 1.7mi
Dew Point: 46°   Wind: 12mph
Humidity: 93%   Direction: 10°N
Pressure: 30.09"   Gusts: 18mph
Location:  43.2°N, 71.15°W
Report Text: KDAW 221251Z AUTO 01010G16KT 1 3/4SM -RA BR OVC008 09/08 A3009 RMK AO2 RAB45 CIG 005V012 SLP189 P0000 T00890078
Loading
Personal Weather Stations






























Interactive Weather Map
Tropical Storm Tracking
New forecast layout! Learn more

10-Day Weather Forecast

Advertisements
Track Severe Weather on mobile